Flight Track Log - Related Links

Times and Time Zones

All times are in EST time to prevent confusion due to time zone crossing. See the SBE607 flight status page for this flight to view local times or setup timezone preferences in your user account.

Time Position Orientation Groundspeed Altitude Reporting Facility
EST Latitude Longitude Course Direction KTS MPH feet Rate Location/Type
Sun 11:37:32 AM 39.1333 -94.5833 360° North 174 200 1,900  Level Kansas City TRACON
Sun 11:37:50 AM 39.1500 -94.5833 360° North 204 235 2,600 3,538 Climbing Kansas City TRACON
Sun 11:38:50 AM 39.2167 -94.5333 30° Northeast 231 266 6,500 3,785 Climbing Kansas City TRACON
Sun 11:40:19 AM 39.2108 -94.4233 94° East 275 316 12,000 3,616 Climbing Kansas City Center
Sun 11:41:21 AM 39.1472 -94.4172 176° South 252 290 15,600 3,317 Climbing Kansas City Center
Sun 11:42:22 AM 39.0683 -94.4244 184° South 252 290 18,800 2,557 Climbing Kansas City Center
Sun 11:43:23 AM 38.9936 -94.4297 183° South 278 320 20,800 2,293 Climbing Kansas City Center
Sun 11:44:25 AM 38.8925 -94.4381 184° South 321 369 23,500 2,488 Climbing Kansas City Center
Sun 11:45:26 AM 38.8022 -94.4458 184° South 332 382 25,900 2,488 Climbing Kansas City Center
Sun 11:46:28 AM 38.7181 -94.3858 151° Southeast 384 442 28,600 2,585 Climbing Kansas City Center
Sun 11:47:29 AM 38.6356 -94.2625 131° Southeast 409 471 31,200 2,341 Climbing Kansas City Center
Sun 11:48:31 AM 38.5617 -94.1567 132° Southeast 417 480 33,400 2,195 Climbing Kansas City Center
Sun 11:49:32 AM 38.4722 -94.0272 131° Southeast 430 495 35,700 1,721 Climbing Kansas City Center
Sun 11:50:33 AM 38.3997 -93.9317 134° Southeast 438 504 36,900 634 Climbing Kansas City Center
Sun 11:51:35 AM 38.2933 -93.7775 131° Southeast 480 552 37,000 49 Climbing Kansas City Center
Sun 11:52:36 AM 38.2158 -93.6736 133° Southeast 497 572 37,000 195 Level Kansas City Center
Sun 11:53:38 AM 38.1039 -93.5164 132° Southeast 498 573 37,400 976 Climbing Kansas City Center
Sun 11:54:39 AM 38.0128 -93.3883 132° Southeast 492 566 39,000 1,512 Climbing Kansas City Center
Sun 11:55:41 AM 37.9214 -93.2619 132° Southeast 490 564 40,500 976 Climbing Kansas City Center
Sun 11:56:42 AM 37.8317 -93.1361 132° Southeast 484 557 41,000 244 Climbing Kansas City Center
Sun 11:57:44 AM 37.7397 -93.0092 132° Southeast 485 558 41,000  Level Kansas City Center
Sun 11:58:45 AM 37.6464 -92.8822 133° Southeast 490 564 41,000  Level Kansas City Center
Sun 11:59:46 AM 37.5542 -92.7558 133° Southeast 490 564 41,000  Level Kansas City Center
Sun 12:00:48 PM 37.4422 -92.6050 133° Southeast 490 564 41,000  Level Kansas City Center
Sun 12:01:49 PM 37.3497 -92.4786 133° Southeast 490 564 41,000  Level Kansas City Center
Sun 12:02:51 PM 37.2575 -92.3528 133° Southeast 490 564 41,000  Level Kansas City Center
Sun 12:03:52 PM 37.1631 -92.2264 133° Southeast 491 565 41,000  Level Kansas City Center
Sun 12:04:54 PM 37.0683 -92.0997 133° Southeast 492 566 41,000  Level Kansas City Center
Sun 12:05:55 PM 36.9750 -91.9739 133° Southeast 495 570 41,000  Level Kansas City Center
Sun 12:06:57 PM 36.8806 -91.8489 133° Southeast 495 570 41,000  Level Kansas City Center
Sun 12:07:58 PM 36.7858 -91.7242 133° Southeast 494 568 41,000  Level Kansas City Center
Sun 12:08:59 PM 36.6914 -91.5989 133° Southeast 494 568 41,000  Level Kansas City Center
Sun 12:09:48 PM 36.6142 -91.4972 133° Southeast 501 577 41,000  Level Memphis Center
Sun 12:10:49 PM 36.4981 -91.3481 134° Southeast 501 577 41,000  Level Memphis Center
Sun 12:11:51 PM 36.4025 -91.2222 133° Southeast 502 578 41,000  Level Memphis Center
Sun 12:12:52 PM 36.3064 -91.0967 134° Southeast 503 579 41,000  Level Memphis Center
Sun 12:13:54 PM 36.2111 -90.9753 134° Southeast 500 575 41,000  Level Memphis Center
Sun 12:14:55 PM 36.1200 -90.8564 133° Southeast 487 560 41,000  Level Memphis Center
Sun 12:15:57 PM 36.0253 -90.7364 134° Southeast 486 559 41,000  Level Memphis Center
Sun 12:16:58 PM 35.9306 -90.6164 134° Southeast 486 559 41,000  Level Memphis Center
Sun 12:18:00 PM 35.8358 -90.4944 134° Southeast 489 563 41,000  Level Memphis Center
Sun 12:19:01 PM 35.7186 -90.3464 134° Southeast 498 573 41,000  Level Memphis Center
Sun 12:20:03 PM 35.6200 -90.2219 134° Southeast 504 580 41,000  Level Memphis Center
Sun 12:21:04 PM 35.5211 -90.0969 134° Southeast 509 586 41,000  Level Memphis Center
Sun 12:22:06 PM 35.4211 -89.9725 135° Southeast 509 586 41,000  Level Memphis Center
Sun 12:23:07 PM 35.3231 -89.8494 134° Southeast 509 586 41,000  Level Memphis Center
Sun 12:24:09 PM 35.2244 -89.7272 135° Southeast 509 586 41,000  Level Memphis Center
Sun 12:25:10 PM 35.1261 -89.6053 135° Southeast 508 585 41,000  Level Memphis Center
Sun 12:26:12 PM 35.0081 -89.4600 135° Southeast 506 582 41,000  Level Memphis Center
Sun 12:27:13 PM 34.9092 -89.3394 135° Southeast 506 582 41,000  Level Memphis Center
Sun 12:28:14 PM 34.8078 -89.2128 134° Southeast 506 582 41,000  Level Memphis Center
Sun 12:29:16 PM 34.7075 -89.0914 135° Southeast 506 582 41,000  Level Memphis Center
Sun 12:30:17 PM 34.6072 -88.9719 136° Southeast 506 582 41,000  Level Memphis Center
Sun 12:31:19 PM 34.5089 -88.8503 134° Southeast 506 582 41,000  Level Memphis Center
Sun 12:32:20 PM 34.4089 -88.7303 135° Southeast 507 583 41,000  Level Memphis Center
Sun 12:33:21 PM 34.3092 -88.6106 135° Southeast 507 583 41,000  Level Memphis Center
Sun 12:34:23 PM 34.2094 -88.4906 135° Southeast 507 583 41,000  Level Memphis Center
Sun 12:35:24 PM 34.1108 -88.3731 135° Southeast 507 583 41,000  Level Memphis Center
Sun 12:36:25 PM 33.9919 -88.2311 135° Southeast 506 582 41,000  Level Memphis Center
Sun 12:37:27 PM 33.8919 -88.1128 135° Southeast 506 582 41,000  Level Memphis Center
Sun 12:38:28 PM 33.7933 -87.9958 135° Southeast 506 582 41,000  Level Memphis Center
Sun 12:39:30 PM 33.6936 -87.8789 136° Southeast 506 582 41,000  Level Memphis Center
Sun 12:40:31 PM 33.5939 -87.7622 136° Southeast 506 582 41,000  Level Memphis Center
Sun 12:41:32 PM 33.4939 -87.6450 136° Southeast 505 581 41,000  Level Memphis Center
Sun 12:42:34 PM 33.3944 -87.5292 136° Southeast 505 581 41,000  Level Memphis Center
Sun 12:43:35 PM 33.2736 -87.3889 136° Southeast 505 581 41,000  Level Memphis Center
Sun 12:44:36 PM 33.1736 -87.2731 136° Southeast 505 581 41,000  Level Memphis Center
Sun 12:45:46 PM 33.0561 -87.1394 136° Southeast 494 568 41,000  Level Atlanta Center
Sun 12:46:46 PM 32.9608 -87.0219 134° Southeast 488 562 41,000  Level Atlanta Center
Sun 12:47:46 PM 32.8633 -86.9075 135° Southeast 493 567 41,000  Level Atlanta Center
Sun 12:48:46 PM 32.7594 -86.7956 138° Southeast 493 567 41,000  Level Atlanta Center
Sun 12:49:46 PM 32.6597 -86.6814 136° Southeast 493 567 41,000  Level Atlanta Center
Sun 12:50:46 PM 32.5578 -86.5697 137° Southeast 493 567 41,000  Level Atlanta Center
Sun 12:51:46 PM 32.4617 -86.4611 136° Southeast 486 559 41,000  Level Atlanta Center
Sun 12:52:46 PM 32.3492 -86.3425 138° Southeast 508 585 41,000  Level Atlanta Center
Sun 12:53:46 PM 32.2553 -86.2297 135° Southeast 508 585 41,000  Level Atlanta Center
Sun 12:54:46 PM 32.1592 -86.1194 136° Southeast 497 572 41,000  Level Atlanta Center
Sun 12:57:01 PM 31.9231 -85.8592 137° Southeast 507 583 41,000  Level Jacksonville Center
Sun 12:58:01 PM 31.8233 -85.7508 137° Southeast 502 578 41,000  Level Jacksonville Center
Sun 12:59:00 PM 31.7214 -85.6403 137° Southeast 497 572 41,000  Level Jacksonville Center
Sun 01:00:01 PM 31.6106 -85.5467 144° Southeast 497 572 41,000  Level Jacksonville Center
Sun 01:01:01 PM 31.4975 -85.4558 146° Southeast 497 572 41,000  Level Jacksonville Center
Sun 01:02:01 PM 31.3889 -85.3578 142° Southeast 497 572 41,000  Level Jacksonville Center
Sun 01:03:01 PM 31.2822 -85.2628 143° Southeast 491 565 41,000  Level Jacksonville Center
Sun 01:04:01 PM 31.1689 -85.1700 145° Southeast 491 565 41,000  Level Jacksonville Center
Sun 01:05:01 PM 31.0558 -85.0753 144° Southeast 491 565 41,000  Level Jacksonville Center
Sun 01:06:01 PM 30.9467 -84.9831 144° Southeast 491 565 41,000  Level Jacksonville Center
Sun 01:07:01 PM 30.8333 -84.8861 144° Southeast 491 565 41,000  Level Jacksonville Center
Sun 01:08:00 PM 30.7242 -84.7919 143° Southeast 491 565 41,000  Level Jacksonville Center
Sun 01:09:00 PM 30.6128 -84.7006 145° Southeast 491 565 41,000  Level Jacksonville Center
Sun 01:10:01 PM 30.5117 -84.6189 145° Southeast 491 565 41,000  Level Jacksonville Center
Sun 01:11:00 PM 30.3936 -84.5519 154° Southeast 481 554 41,000  Level Jacksonville Center
Sun 01:12:01 PM 30.2753 -84.4872 155° Southeast 476 548 41,000  Level Jacksonville Center
Sun 01:13:01 PM 30.1572 -84.4181 153° Southeast 471 542 41,000  Level Jacksonville Center
Sun 01:14:00 PM 30.0411 -84.3539 154° Southeast 464 534 41,000  Level Jacksonville Center
Sun 01:15:00 PM 29.9269 -84.2875 153° Southeast 464 534 41,000  Level Jacksonville Center
Sun 01:16:00 PM 29.8108 -84.2211 154° Southeast 469 540 41,000  Level Jacksonville Center
Sun 01:17:01 PM 29.6903 -84.1550 155° Southeast 469 540 41,000  Level Jacksonville Center
Sun 01:18:00 PM 29.5719 -84.0889 154° Southeast 469 540 41,000  Level Jacksonville Center
Sun 01:19:01 PM 29.4556 -84.0231 154° Southeast 469 540 41,000  Level Jacksonville Center
Sun 01:20:01 PM 29.3331 -83.9550 154° Southeast 469 540 41,000  Level Jacksonville Center
Sun 01:21:00 PM 29.2147 -83.8894 154° Southeast 469 540 41,000  Level Jacksonville Center
Sun 01:22:01 PM 29.0961 -83.8217 153° Southeast 469 540 41,000  Level Jacksonville Center
Sun 01:23:00 PM 28.9775 -83.7567 154° Southeast 469 540 41,000  Level Jacksonville Center
Sun 01:24:00 PM 28.8592 -83.6844 152° Southeast 474 545 41,000 -514 Level Jacksonville Center
Sun 01:26:42 PM 28.5264 -83.5014 154° Southeast 480 552 39,100 -838 Descending Miami Center
Sun 01:27:42 PM 28.4025 -83.4325 154° Southeast 493 567 37,900 -1,700 Descending Miami Center
Sun 01:28:42 PM 28.2781 -83.3689 156° South 498 573 35,700 -1,500 Descending Miami Center
Sun 01:29:42 PM 28.1569 -83.3736 182° South 475 547 34,900 -1,100 Descending Miami Center
Sun 01:30:42 PM 28.0236 -83.3728 180° South 475 547 33,500 -1,250 Descending Miami Center
Sun 01:31:42 PM 27.8903 -83.3700 179° South 480 552 32,400 -1,400 Descending Miami Center
Sun 01:32:42 PM 27.7592 -83.3647 178° South 480 552 30,700 -1,350 Descending Miami Center
Sun 01:33:42 PM 27.6236 -83.3642 180° South 485 558 29,700 -1,150 Descending Miami Center
Sun 01:34:42 PM 27.4861 -83.3564 177° South 490 564 28,400 -1,250 Descending Miami Center
Sun 01:35:42 PM 27.3778 -83.2614 142° Southeast 478 550 27,200 -1,350 Descending Miami Center
Sun 01:36:42 PM 27.3003 -83.1286 123° Southeast 473 544 25,700 -1,600 Descending Miami Center
Sun 01:37:42 PM 27.2222 -82.9983 124° Southeast 479 551 24,000 -1,800 Descending Miami Center
Sun 01:38:42 PM 27.1483 -82.8708 123° Southeast 485 558 22,100 -2,000 Descending Miami Center
Sun 01:39:42 PM 27.0481 -82.7725 139° Southeast 485 558 20,000 -2,100 Descending Miami Center
Sun 01:40:42 PM 26.9428 -82.6950 147° Southeast 473 544 17,900 -2,100 Descending Miami Center
Sun 01:41:42 PM 26.8544 -82.6092 139° Southeast 450 518 15,800 -2,200 Descending Miami Center
Sun 01:42:42 PM 26.7625 -82.5047 135° Southeast 437 503 13,500 -2,100 Descending Miami Center
Sun 01:43:42 PM 26.6861 -82.4267 138° Southeast 416 479 11,600 -1,900 Descending Miami Center
Sun 01:44:42 PM 26.6094 -82.3556 140° Southeast 381 438 9,700 -1,850 Descending Miami Center
Sun 01:45:42 PM 26.5364 -82.3011 146° Southeast 336 387 7,900 -1,350 Descending Miami Center
Sun 01:46:42 PM 26.4672 -82.2517 147° Southeast 309 356 7,000 -450 Descending Miami Center
Sun 01:47:42 PM 26.4022 -82.2044 147° Southeast 288 331 7,000  Level Miami Center
Sun 01:48:42 PM 26.3372 -82.1553 146° Southeast 288 331 7,000 -50 Level Miami Center
Sun 01:49:42 PM 26.2639 -82.1058 149° Southeast 287 330 6,900 -600 Descending Miami Center
Sun 01:50:42 PM 26.2139 -82.0433 132° Southeast 287 330 5,800 -1,100 Descending Miami Center
Sun 01:52:00 PM 26.0833 -81.9552 90° East  Level FlightAware Approximate
Sun 01:59:00 PM 26.1500 -81.7667 66° East  Level FlightAware Approximate
Sun 02:00:00 PM 26.1524 -81.7756 66° East  Level Estimated
Sun 02:01:00 PM 26.1524 -81.7756 66° East  Level Estimated
Sun 02:02:00 PM 26.1524 -81.7756 66° East  Level Estimated
Sun 02:03:00 PM 26.1524 -81.7756 66° East  Level Estimated
Sun 02:04:00 PM 26.1524 -81.7756 66° East  Level Estimated
Sun 02:05:00 PM 26.1524 -81.7756 66° East  Level Estimated
Sun 02:06:00 PM 26.1524 -81.7756 66° East  Level Estimated

Login

Don't have an account? Register now (free) for customized features, flight alerts, and more!